createdAt,value
2022-11-20T00:02:37.798Z,-1.10
2022-11-20T00:07:39.834Z,-1.07
2022-11-20T00:12:41.981Z,-1.06
2022-11-20T00:17:44.140Z,-1.02
2022-11-20T00:22:46.084Z,-1.03
2022-11-20T00:27:48.127Z,-0.99
2022-11-20T00:32:50.153Z,-0.96
2022-11-20T00:37:52.188Z,-1.07
2022-11-20T00:42:54.146Z,-1.02
2022-11-20T00:47:56.139Z,-1.01
2022-11-20T00:52:58.131Z,-1.02
2022-11-20T00:58:04.289Z,-1.02
2022-11-20T01:03:06.514Z,-1.09
2022-11-20T01:08:08.630Z,-1.08
2022-11-20T01:13:29.255Z,-1.06
2022-11-20T01:18:31.366Z,-1.06
2022-11-20T01:23:35.329Z,-1.10
2022-11-20T01:28:37.426Z,-1.15
2022-11-20T01:33:40.406Z,-1.10
2022-11-20T01:38:43.516Z,-1.12
2022-11-20T01:43:45.510Z,-1.15
2022-11-20T01:48:51.162Z,-1.06
2022-11-20T01:53:56.982Z,-1.02
2022-11-20T01:59:02.919Z,-1.06
2022-11-20T02:04:05.047Z,-1.14
2022-11-20T02:09:07.165Z,-1.19
2022-11-20T02:14:10.872Z,-1.21
2022-11-20T02:19:33.237Z,-1.09
2022-11-20T02:24:35.579Z,-1.26
2022-11-20T02:29:44.728Z,-1.27
2022-11-20T02:34:46.726Z,-1.26
2022-11-20T02:39:51.279Z,-1.24
2022-11-20T02:44:53.232Z,-1.28
2022-11-20T02:49:55.203Z,-1.34
2022-11-20T02:54:57.225Z,-1.36
2022-11-20T02:59:59.237Z,-1.33
2022-11-20T03:05:01.282Z,-1.42
2022-11-20T03:10:05.670Z,-1.23
2022-11-20T03:15:08.286Z,-1.22
2022-11-20T03:20:10.733Z,-1.28
2022-11-20T03:25:12.747Z,-1.27
2022-11-20T03:30:16.372Z,-1.23
2022-11-20T03:35:18.728Z,-1.30
2022-11-20T03:40:20.726Z,-1.22
2022-11-20T03:45:22.786Z,-1.20
2022-11-20T03:50:24.789Z,-1.16
2022-11-20T03:55:27.083Z,-1.26
2022-11-20T04:00:29.088Z,-1.13
2022-11-20T04:05:31.114Z,-1.12
2022-11-20T04:10:33.176Z,-1.24
2022-11-20T04:15:38.362Z,-1.17
2022-11-20T04:20:40.617Z,-1.21
2022-11-20T04:25:42.682Z,-1.23
2022-11-20T04:30:44.970Z,-1.26
2022-11-20T04:35:48.997Z,-1.23
2022-11-20T04:40:50.946Z,-1.27
2022-11-20T04:45:54.717Z,-1.28
2022-11-20T04:50:57.400Z,-1.21
2022-11-20T04:56:09.459Z,-1.16
2022-11-20T05:01:17.326Z,-1.15
2022-11-20T05:06:22.315Z,-1.13
2022-11-20T05:11:24.551Z,-1.14
2022-11-20T05:16:27.193Z,-1.14
2022-11-20T05:21:32.575Z,-1.12
2022-11-20T05:26:34.593Z,-1.20
2022-11-20T05:31:37.248Z,-1.20
2022-11-20T05:36:39.281Z,-1.20
2022-11-20T05:41:41.382Z,-1.20
2022-11-20T05:46:43.333Z,-1.22
2022-11-20T05:51:45.344Z,-1.19
2022-11-20T05:56:47.302Z,-1.19
2022-11-20T06:01:49.370Z,-1.11
2022-11-20T06:06:51.435Z,-1.12
2022-11-20T06:11:53.563Z,-1.06
2022-11-20T06:16:55.700Z,-1.01
2022-11-20T06:21:57.670Z,-0.95
2022-11-20T06:26:59.686Z,-0.84
2022-11-20T06:32:02.342Z,-0.69
2022-11-20T06:37:04.304Z,-0.81
2022-11-20T06:42:06.214Z,-0.76
2022-11-20T06:47:08.535Z,-0.81
2022-11-20T06:52:10.490Z,-0.88
2022-11-20T06:57:13.513Z,-0.78
2022-11-20T07:02:15.545Z,-0.68
2022-11-20T07:07:17.666Z,-0.49
2022-11-20T07:12:19.760Z,-0.56
2022-11-20T07:17:22.056Z,-0.31
2022-11-20T07:22:24.179Z,-0.37
2022-11-20T07:27:26.260Z,-0.25
2022-11-20T07:32:28.241Z,-0.15
2022-11-20T07:37:30.212Z,-0.07
2022-11-20T07:42:32.370Z,-0.01
2022-11-20T07:47:37.782Z,0.07
2022-11-20T07:52:40.429Z,0.13
2022-11-20T07:57:42.657Z,0.17
2022-11-20T08:02:44.741Z,0.08
2022-11-20T08:07:46.931Z,0.18
2022-11-20T08:13:11.991Z,0.21
2022-11-20T08:18:32.211Z,0.25
2022-11-20T08:23:34.745Z,0.32
2022-11-20T08:28:36.727Z,0.43
2022-11-20T08:33:39.337Z,0.32
2022-11-20T08:38:42.959Z,0.34
2022-11-20T08:43:45.301Z,0.31
2022-11-20T08:48:48.719Z,0.18
2022-11-20T08:53:50.780Z,0.37
2022-11-20T09:04:15.538Z,0.41
2022-11-20T09:09:19.371Z,0.51
2022-11-20T09:14:22.479Z,0.54
2022-11-20T09:19:35.548Z,0.74
2022-11-20T09:24:43.825Z,0.80
2022-11-20T09:29:45.799Z,0.86
2022-11-20T09:34:47.772Z,0.88
2022-11-20T09:39:49.796Z,0.87
2022-11-20T09:45:30.823Z,1.05
2022-11-20T09:50:39.497Z,0.92
2022-11-20T09:55:41.795Z,0.99
2022-11-20T10:00:44.066Z,1.00
2022-11-20T10:05:54.217Z,1.16
2022-11-20T10:11:14.192Z,1.10
2022-11-20T10:17:14.891Z,1.27
2022-11-20T10:22:41.410Z,1.17
2022-11-20T10:28:03.389Z,1.24
2022-11-20T10:33:15.288Z,1.21
2022-11-20T10:38:22.937Z,1.57
2022-11-20T10:43:34.398Z,1.36
2022-11-20T10:48:37.730Z,1.32
2022-11-20T10:53:54.602Z,1.46
2022-11-20T10:59:02.604Z,1.43
2022-11-20T11:04:15.865Z,1.36
2022-11-20T11:09:24.701Z,1.37
2022-11-20T11:14:27.993Z,1.26
2022-11-20T11:19:30.038Z,1.26
2022-11-20T11:24:42.413Z,1.11
2022-11-20T11:29:46.498Z,1.24
2022-11-20T11:35:09.294Z,1.37
2022-11-20T11:40:27.793Z,1.25
2022-11-20T11:45:30.314Z,1.13
2022-11-20T11:50:32.700Z,1.02
2022-11-20T11:55:46.753Z,1.12
2022-11-20T12:01:04.833Z,1.11
2022-11-20T12:06:13.004Z,1.02
2022-11-20T12:11:25.562Z,0.89
2022-11-20T12:16:27.555Z,0.61
2022-11-20T12:21:35.254Z,0.58
2022-11-20T12:26:58.408Z,0.60
2022-11-20T12:32:26.443Z,0.61
2022-11-20T12:37:39.438Z,0.74
2022-11-20T12:43:31.680Z,0.82
2022-11-20T12:49:02.731Z,0.88
2022-11-20T12:54:29.149Z,0.81
2022-11-20T13:00:08.357Z,0.90
2022-11-20T13:05:14.704Z,0.83
2022-11-20T13:10:35.537Z,0.90
2022-11-20T13:15:40.328Z,0.91
2022-11-20T13:20:45.643Z,0.92
2022-11-20T13:25:48.983Z,0.90
2022-11-20T13:30:53.609Z,0.89
2022-11-20T13:36:07.608Z,0.79
2022-11-20T13:41:28.593Z,0.83
2022-11-20T13:46:44.406Z,0.90
2022-11-20T13:51:56.069Z,0.78
2022-11-20T13:57:37.210Z,0.91
2022-11-20T14:02:39.841Z,0.75
2022-11-20T14:07:43.633Z,0.79
2022-11-20T14:12:45.754Z,0.77
2022-11-20T14:17:47.756Z,0.75
2022-11-20T14:22:54.624Z,0.82
2022-11-20T14:27:59.748Z,0.78
2022-11-20T14:33:04.382Z,0.82
2022-11-20T14:38:13.992Z,0.87
2022-11-20T14:43:21.125Z,0.87
2022-11-20T14:48:30.519Z,0.89
2022-11-20T14:53:32.636Z,0.85
2022-11-20T14:58:35.198Z,0.88
2022-11-20T15:03:39.848Z,0.89
2022-11-20T15:08:52.996Z,0.97
2022-11-20T15:13:55.234Z,0.83
2022-11-20T15:18:57.703Z,0.83
2022-11-20T15:24:00.358Z,0.63
2022-11-20T15:29:02.568Z,0.78
2022-11-20T15:34:08.569Z,0.84
2022-11-20T15:39:11.142Z,0.81
2022-11-20T15:44:13.443Z,0.80
2022-11-20T15:49:17.297Z,0.82
2022-11-20T15:54:22.838Z,0.84
2022-11-20T15:59:25.288Z,0.73
2022-11-20T16:04:27.378Z,0.79
2022-11-20T16:09:29.474Z,0.68
2022-11-20T16:14:50.125Z,0.59
2022-11-20T16:19:52.442Z,0.55
2022-11-20T16:24:54.447Z,0.58
2022-11-20T16:29:56.563Z,0.63
2022-11-20T16:34:58.755Z,0.63
2022-11-20T16:40:00.797Z,0.65
2022-11-20T16:45:03.585Z,0.72
2022-11-20T16:50:08.745Z,0.63
2022-11-20T16:55:11.352Z,0.75
2022-11-20T17:00:14.007Z,0.73
2022-11-20T17:05:16.241Z,0.72
2022-11-20T17:10:18.298Z,0.69
2022-11-20T17:15:20.381Z,0.65
2022-11-20T17:20:22.439Z,0.64
2022-11-20T17:25:24.512Z,0.69
2022-11-20T17:30:26.551Z,0.68
2022-11-20T17:35:28.544Z,0.72
2022-11-20T17:40:31.241Z,0.74
2022-11-20T17:45:36.258Z,0.77
2022-11-20T17:50:39.654Z,0.65
2022-11-20T17:56:00.185Z,0.64
2022-11-20T18:01:06.795Z,0.70
2022-11-20T18:06:17.741Z,0.73
2022-11-20T18:11:27.469Z,0.75
2022-11-20T18:16:31.761Z,0.59
2022-11-20T18:21:33.876Z,0.55
2022-11-20T18:26:40.035Z,0.51
2022-11-20T18:31:45.993Z,0.51
2022-11-20T18:36:48.309Z,0.51
2022-11-20T18:42:09.489Z,0.53
2022-11-20T18:47:17.668Z,0.59
2022-11-20T18:52:25.626Z,0.63
2022-11-20T18:57:29.049Z,0.64
2022-11-20T19:02:31.216Z,0.63
2022-11-20T19:07:33.351Z,0.57
2022-11-20T19:12:35.394Z,0.60
2022-11-20T19:17:37.828Z,0.59
2022-11-20T19:22:40.276Z,0.55
2022-11-20T19:27:42.348Z,0.54
2022-11-20T19:32:44.431Z,0.41
2022-11-20T19:37:46.487Z,0.56
2022-11-20T19:42:48.538Z,0.57
2022-11-20T19:48:07.149Z,0.58
2022-11-20T19:53:11.567Z,0.62
2022-11-20T19:58:15.044Z,0.56
2022-11-20T20:03:17.546Z,0.51
2022-11-20T20:08:19.568Z,0.55
2022-11-20T20:13:21.717Z,0.57
2022-11-20T20:18:23.722Z,0.54
2022-11-20T20:23:25.742Z,0.37
2022-11-20T20:28:28.282Z,0.47
2022-11-20T20:33:30.507Z,0.43
2022-11-20T20:38:33.297Z,0.44
2022-11-20T20:43:56.041Z,0.47
2022-11-20T20:48:59.748Z,0.45
2022-11-20T20:54:02.389Z,0.44
2022-11-20T20:59:04.619Z,0.42
2022-11-20T21:04:06.703Z,0.42
2022-11-20T21:09:09.837Z,0.41
2022-11-20T21:14:11.823Z,0.38
2022-11-20T21:19:14.025Z,0.37
2022-11-20T21:24:16.038Z,0.28
2022-11-20T21:29:22.110Z,0.48
2022-11-20T21:34:25.751Z,0.45
2022-11-20T21:39:30.322Z,0.49
2022-11-20T21:44:32.460Z,0.50
2022-11-20T21:49:34.634Z,0.49
2022-11-20T21:54:36.759Z,0.39
2022-11-20T21:59:38.798Z,0.43
2022-11-20T22:04:42.761Z,0.38
2022-11-20T22:09:45.822Z,0.34
2022-11-20T22:14:47.930Z,0.24
2022-11-20T22:19:49.913Z,0.21
2022-11-20T22:24:52.030Z,0.10
2022-11-20T22:29:54.109Z,0.16
2022-11-20T22:34:56.141Z,0.10
2022-11-20T22:39:58.207Z,-0.05
2022-11-20T22:45:00.168Z,-0.15
2022-11-20T22:50:02.258Z,-0.19
2022-11-20T22:55:05.347Z,-0.18
2022-11-20T23:00:08.473Z,-0.16
2022-11-20T23:05:10.635Z,-0.07
2022-11-20T23:10:13.136Z,-0.10
2022-11-20T23:15:15.260Z,-0.04
2022-11-20T23:20:17.374Z,-0.04
2022-11-20T23:25:19.329Z,-0.05
2022-11-20T23:30:21.640Z,-0.04
2022-11-20T23:35:24.048Z,-0.01
2022-11-20T23:40:26.005Z,-0.05
2022-11-20T23:45:28.091Z,-0.03
2022-11-20T23:50:30.140Z,-0.05
2022-11-20T23:55:32.522Z,-0.12
